Esquel, Argentina
Current Conditions -  °F | °C
As of 3:00 PM on Thursday 18 Dec 2014 (Local Time) from SCFT Reporting Station
Overcast Overcast  
Wind Chill: 57°   Ceiling: 1400
Heat Index: 57°   Visibility: 4mi
Dew Point: 43°   Wind: 16mph
Humidity: 59%   Direction: 270°W
Pressure: 29.71"   Gusts: 28mph
Location:  42.91°S, 71.32°W
Report Text: SCFT 181800Z AUTO 27014G24KT 230V290 7000 VV014 14/06 Q1006
Loading
Personal Weather Stations






























Interactive Weather Map New forecast layout! Learn more

10-Day Weather Forecast

Advertisements
Track Severe Weather on mobile